Paulette, Mississippi
Current Conditions -  °F | °C
As of 12:25 PM on Monday 22 Dec 2014 (Local Time) from KGTR Reporting Station
Haze Haze  
Wind Chill: 54°   Ceiling: 200
Heat Index: 54°   Visibility: 1mi
Dew Point: 52°   Wind: 10mph
Humidity: 94%   Direction: 150°SSE
Pressure: 29.78"   Gusts: NA
Location:  33.0597°N, 88.6007°W
Report Text: KGTR 221825Z 15009KT 1SM BR OVC002 12/11 A2978
Loading
Personal Weather Stations






























Interactive Weather Map New forecast layout! Learn more

10-Day Weather Forecast

Advertisements
Track Severe Weather on mobile